Time;durP1;ratioP1;P1;durP2;ratioP2;P2;SDS_P1;SDS_P2;PMS_P1;PMS_P2;Temp;Humidity;BMP_temperature;BMP_pressure;BME280_temperature;BME280_humidity;BME280_pressure;Samples;Min_cycle;Max_cycle;Signal;HPM_P1;HPM_P2
2022/10/13 00:00:44;;;;;;;33.50;18.77;;;14.80;99.90;;;;;;4977485;28;20027;-63
2022/10/13 00:03:10;;;;;;;43.03;19.33;;;14.10;99.90;;;;;;4974474;28;20034;-63
2022/10/13 00:05:41;;;;;;;38.58;19.15;;;14.80;99.90;;;;;;4972270;28;20048;-63
2022/10/13 00:08:06;;;;;;;35.03;19.50;;;14.30;99.90;;;;;;4973368;28;20041;-63
2022/10/13 00:10:35;;;;;;;42.53;20.27;;;15.10;99.90;;;;;;4973017;28;20912;-63
2022/10/13 00:13:01;;;;;;;38.38;19.35;;;14.30;99.90;;;;;;4990937;28;20081;-63
2022/10/13 00:15:27;;;;;;;38.08;19.60;;;14.00;99.90;;;;;;4991516;28;20076;-63
2022/10/13 00:17:52;;;;;;;43.25;19.00;;;14.50;99.90;;;;;;4989849;28;20122;-63
2022/10/13 00:20:18;;;;;;;34.03;18.58;;;14.60;99.90;;;;;;4990036;28;20464;-63
2022/10/13 00:22:44;;;;;;;33.97;19.08;;;14.40;99.90;;;;;;4977217;28;20039;-63
2022/10/13 00:25:09;;;;;;;44.03;21.13;;;14.10;99.90;;;;;;4954720;28;20042;-63
2022/10/13 00:27:35;;;;;;;41.67;20.60;;;14.60;99.90;;;;;;4980064;28;20070;-63
2022/10/13 00:30:00;;;;;;;37.25;19.65;;;14.20;99.90;;;;;;4979646;28;20485;-63
2022/10/13 00:32:26;;;;;;;41.20;19.40;;;14.30;99.90;;;;;;4955412;28;20047;-63
2022/10/13 00:34:52;;;;;;;42.70;20.23;;;14.20;99.90;;;;;;4986564;28;20038;-63
2022/10/13 00:37:17;;;;;;;39.92;20.00;;;14.10;99.90;;;;;;4978655;28;20042;-63
2022/10/13 00:39:43;;;;;;;36.88;18.73;;;14.60;99.90;;;;;;4972669;28;20122;-63
2022/10/13 00:42:11;;;;;;;44.22;19.98;;;15.00;99.90;;;;;;4972480;28;20045;-63
2022/10/13 00:45:42;;;;;;;36.58;20.08;;;14.50;99.90;;;;;;4985616;28;20046;-63
2022/10/13 00:48:08;;;;;;;38.05;19.52;;;14.40;99.90;;;;;;4863837;29;20071;-63
2022/10/13 00:50:40;;;;;;;35.50;18.77;;;15.00;99.90;;;;;;4988556;28;20046;-63
2022/10/13 00:53:07;;;;;;;41.45;19.20;;;14.80;99.90;;;;;;4937799;28;1044425;-63
2022/10/13 00:55:37;;;;;;;37.58;18.80;;;14.20;99.90;;;;;;4954740;28;20050;-63
2022/10/13 00:58:05;;;;;;;37.20;19.08;;;14.40;99.90;;;;;;4990537;28;20116;-63
2022/10/13 01:00:31;;;;;;;39.60;19.55;;;14.30;99.90;;;;;;4988234;28;20039;-63
2022/10/13 01:02:57;;;;;;;31.35;18.15;;;14.20;99.90;;;;;;4973188;28;20049;-63
2022/10/13 01:05:24;;;;;;;37.03;19.60;;;15.10;99.90;;;;;;4985129;28;20038;-64
2022/10/13 01:07:51;;;;;;;39.55;20.30;;;14.20;99.90;;;;;;4990135;28;20070;-63
2022/10/13 01:10:38;;;;;;;47.67;20.88;;;15.40;99.90;;;;;;4991528;28;20492;-63
2022/10/13 01:13:20;;;;;;;39.55;19.20;;;14.30;99.90;;;;;;4968841;28;20146;-63
2022/10/13 01:15:48;;;;;;;31.77;18.55;;;14.20;99.90;;;;;;4973275;28;20054;-63
2022/10/13 01:18:16;;;;;;;31.70;18.20;;;14.30;99.90;;;;;;4956826;28;20380;-63
2022/10/13 01:20:52;;;;;;;35.95;19.00;;;14.30;99.90;;;;;;4977011;28;20579;-64
2022/10/13 01:23:50;;;;;;;40.20;18.80;;;14.80;99.90;;;;;;4990361;28;20049;-64
2022/10/13 01:26:46;;;;;;;40.65;18.75;;;14.40;99.90;;;;;;4981165;28;20054;-63
2022/10/13 01:29:26;;;;;;;43.08;18.88;;;14.80;99.90;;;;;;4976092;28;20400;-63
2022/10/13 01:32:19;;;;;;;42.70;18.75;;;14.80;99.90;;;;;;4981852;28;20039;-64
2022/10/13 01:35:02;;;;;;;37.85;17.35;;;14.80;99.90;;;;;;4992174;28;20046;-64
2022/10/13 01:37:48;;;;;;;37.58;18.42;;;14.80;99.90;;;;;;4989147;28;20408;-64
2022/10/13 01:40:48;;;;;;;37.72;18.60;;;14.70;99.90;;;;;;4975615;28;20046;-64
2022/10/13 01:43:28;;;;;;;35.97;17.27;;;14.30;99.90;;;;;;4992975;28;20097;-64
2022/10/13 01:46:02;;;;;;;41.33;17.70;;;14.80;99.90;;;;;;4992564;28;20046;-64
2022/10/13 01:48:28;;;;;;;35.40;18.50;;;14.20;99.90;;;;;;4973435;28;20125;-64
2022/10/13 01:50:57;;;;;;;32.10;17.42;;;14.80;99.90;;;;;;4959124;28;20042;-63
2022/10/13 01:53:24;;;;;;;31.15;16.73;;;14.30;99.90;;;;;;4975695;28;20070;-63
2022/10/13 01:55:53;;;;;;;34.53;17.23;;;14.20;99.90;;;;;;4977535;28;20050;-63
2022/10/13 01:58:19;;;;;;;32.17;17.70;;;15.20;99.90;;;;;;4993430;28;20038;-63
2022/10/13 02:01:13;;;;;;;35.13;16.73;;;14.20;99.90;;;;;;4993589;28;20050;-63
2022/10/13 02:03:44;;;;;;;31.40;16.90;;;14.30;99.90;;;;;;4947599;28;20408;-63
2022/10/13 02:06:20;;;;;;;32.70;17.70;;;14.90;99.90;;;;;;4993452;28;20073;-63
2022/10/13 02:08:52;;;;;;;37.90;19.17;;;14.90;99.90;;;;;;4974470;28;20393;-63
2022/10/13 02:11:20;;;;;;;32.95;17.88;;;14.70;99.90;;;;;;4992434;28;20084;-63
2022/10/13 02:14:02;;;;;;;36.72;17.98;;;14.90;99.90;;;;;;4977614;28;20458;-64
2022/10/13 02:16:37;;;;;;;36.63;16.77;;;14.90;99.90;;;;;;4976594;28;20043;-64
2022/10/13 02:19:06;;;;;;;31.88;17.38;;;14.20;99.90;;;;;;4994811;28;20045;-63
2022/10/13 02:21:32;;;;;;;33.45;18.58;;;15.00;99.90;;;;;;4994758;28;20121;-64
2022/10/13 02:23:58;;;;;;;31.52;18.50;;;15.00;99.90;;;;;;4978599;28;20138;-64
2022/10/13 02:26:24;;;;;;;38.75;17.95;;;14.90;99.90;;;;;;4957887;28;20066;-64
2022/10/13 02:28:50;;;;;;;31.17;18.15;;;15.60;99.90;;;;;;4957683;28;20498;-63
2022/10/13 02:31:15;;;;;;;36.40;17.67;;;15.00;99.90;;;;;;4976371;28;20051;-63
2022/10/13 02:33:41;;;;;;;36.20;16.73;;;15.00;99.90;;;;;;4976956;28;20121;-63
2022/10/13 02:36:06;;;;;;;30.13;17.33;;;14.20;99.90;;;;;;4976626;28;20050;-63
2022/10/13 02:38:32;;;;;;;31.42;18.58;;;14.10;99.90;;;;;;4994505;28;20496;-63
2022/10/13 02:41:00;;;;;;;29.67;16.52;;;14.40;99.90;;;;;;4990867;28;20049;-63
2022/10/13 02:43:26;;;;;;;27.88;16.67;;;14.70;99.90;;;;;;4941282;28;20484;-63
2022/10/13 02:45:51;;;;;;;33.72;17.27;;;15.10;99.90;;;;;;4976138;28;20066;-63
2022/10/13 02:48:17;;;;;;;36.35;17.70;;;15.20;99.90;;;;;;4958592;28;20074;-63
2022/10/13 02:50:42;;;;;;;33.05;18.73;;;15.20;99.90;;;;;;4975876;28;20096;-63
2022/10/13 02:53:08;;;;;;;36.63;18.02;;;15.00;99.90;;;;;;4975888;28;20412;-63
2022/10/13 02:55:33;;;;;;;36.53;19.17;;;14.30;99.90;;;;;;4966379;28;20054;-63
2022/10/13 02:57:59;;;;;;;35.28;17.98;;;14.70;99.90;;;;;;4957062;28;20046;-63
2022/10/13 03:00:25;;;;;;;41.75;19.08;;;15.40;99.90;;;;;;4975577;28;20538;-63
2022/10/13 03:02:50;;;;;;;30.70;18.80;;;15.20;99.90;;;;;;4975777;28;20039;-63
2022/10/13 03:05:16;;;;;;;37.33;18.20;;;15.30;99.90;;;;;;4975529;28;20039;-63
2022/10/13 03:07:42;;;;;;;30.52;18.60;;;15.30;99.90;;;;;;4975664;28;20038;-63
2022/10/13 03:10:07;;;;;;;32.45;17.50;;;14.50;99.90;;;;;;4976559;28;20042;-63
2022/10/13 03:12:33;;;;;;;31.60;17.88;;;15.60;99.90;;;;;;4975382;28;20046;-63
2022/10/13 03:14:59;;;;;;;31.70;18.83;;;15.60;99.90;;;;;;4970505;28;20160;-63
2022/10/13 03:17:25;;;;;;;35.33;18.35;;;15.60;99.90;;;;;;4977779;28;20034;-63
2022/10/13 03:19:51;;;;;;;28.95;18.05;;;15.20;99.90;;;;;;4993802;28;20046;-63
2022/10/13 03:22:17;;;;;;;30.88;17.05;;;15.60;99.90;;;;;;4970219;28;20038;-63
2022/10/13 03:24:43;;;;;;;32.13;18.52;;;15.60;99.90;;;;;;4991963;28;20054;-63
2022/10/13 03:27:09;;;;;;;36.55;18.90;;;14.80;99.90;;;;;;4991845;28;20038;-63
2022/10/13 03:29:35;;;;;;;47.17;20.20;;;15.80;99.90;;;;;;4993729;28;20038;-63
2022/10/13 03:32:00;;;;;;;33.05;20.08;;;17.50;99.90;;;;;;4974318;28;20404;-63
2022/10/13 03:34:26;;;;;;;38.58;20.25;;;15.00;99.90;;;;;;4972563;28;20065;-64
2022/10/13 03:36:52;;;;;;;40.92;21.63;;;15.60;99.90;;;;;;4958932;28;20043;-64
2022/10/13 03:39:17;;;;;;;45.30;21.83;;;15.60;99.90;;;;;;4976089;28;20034;-64
2022/10/13 03:41:43;;;;;;;39.88;22.17;;;14.50;99.90;;;;;;4961928;28;20046;-63
2022/10/13 03:44:12;;;;;;;34.10;19.85;;;14.60;99.90;;;;;;4993256;28;20034;-63
2022/10/13 03:46:38;;;;;;;32.70;17.00;;;15.80;99.90;;;;;;4972423;28;20105;-64
2022/10/13 03:49:03;;;;;;;32.72;17.17;;;14.80;99.90;;;;;;4993143;28;20034;-64
2022/10/13 03:51:29;;;;;;;32.13;17.75;;;14.60;99.90;;;;;;4974313;28;20046;-63
2022/10/13 03:53:55;;;;;;;29.27;17.45;;;15.70;99.90;;;;;;4991348;28;20053;-64
2022/10/13 03:56:24;;;;;;;38.42;18.65;;;14.80;99.90;;;;;;4989712;28;20098;-64
2022/10/13 03:58:55;;;;;;;37.75;19.33;;;14.60;99.90;;;;;;4993098;28;20046;-63
2022/10/13 04:01:23;;;;;;;36.90;19.23;;;15.00;99.90;;;;;;4980906;28;20106;-63
2022/10/13 04:03:50;;;;;;;33.78;19.02;;;15.60;99.90;;;;;;4974470;28;20061;-63
2022/10/13 04:06:16;;;;;;;38.85;20.15;;;15.10;99.90;;;;;;4975157;28;20045;-63
2022/10/13 04:08:42;;;;;;;28.38;17.55;;;14.80;99.90;;;;;;4991592;28;20708;-64
2022/10/13 04:11:11;;;;;;;32.33;18.30;;;15.60;99.90;;;;;;4974186;28;20038;-63
2022/10/13 04:13:36;;;;;;;37.13;19.70;;;14.60;99.90;;;;;;4958259;28;20043;-64
2022/10/13 04:16:07;;;;;;;36.58;19.67;;;14.70;99.90;;;;;;4976122;28;20129;-64
2022/10/13 04:18:33;;;;;;;39.35;19.58;;;15.20;99.90;;;;;;4975233;28;20125;-64
2022/10/13 04:20:59;;;;;;;29.80;18.95;;;15.40;99.90;;;;;;4989706;28;20141;-64
2022/10/13 04:23:25;;;;;;;35.92;18.13;;;15.10;99.90;;;;;;4973423;28;20170;-64
2022/10/13 04:25:51;;;;;;;42.25;22.10;;;15.20;99.90;;;;;;4959249;28;20117;-64
2022/10/13 04:28:16;;;;;;;43.60;22.98;;;14.70;99.90;;;;;;4991231;28;20050;-65
2022/10/13 04:30:42;;;;;;;38.28;20.48;;;15.80;99.90;;;;;;4971612;28;20042;-64
2022/10/13 04:33:08;;;;;;;40.15;22.42;;;15.80;99.90;;;;;;4975105;28;20128;-64
2022/10/13 04:35:39;;;;;;;40.92;21.90;;;16.10;99.90;;;;;;4972184;28;20112;-65
2022/10/13 04:38:04;;;;;;;41.65;24.05;;;15.70;99.90;;;;;;4984188;28;20042;-65
2022/10/13 04:40:30;;;;;;;49.38;25.02;;;15.90;99.90;;;;;;4956245;28;20050;-64
2022/10/13 04:42:56;;;;;;;49.92;26.25;;;15.80;99.90;;;;;;4987545;28;20097;-65
2022/10/13 04:45:22;;;;;;;51.85;27.00;;;16.00;99.90;;;;;;4978866;28;20045;-65
2022/10/13 04:47:47;;;;;;;35.47;20.45;;;15.10;99.90;;;;;;4972609;28;20451;-65
2022/10/13 04:50:13;;;;;;;41.90;21.65;;;15.00;99.90;;;;;;4974402;28;20046;-65
2022/10/13 04:52:38;;;;;;;34.67;20.95;;;15.00;99.90;;;;;;4972799;28;20056;-65
2022/10/13 04:55:04;;;;;;;34.55;20.33;;;16.00;99.90;;;;;;4974411;28;20050;-65
2022/10/13 04:57:30;;;;;;;36.00;22.73;;;15.70;99.90;;;;;;4988887;28;20050;-65
2022/10/13 04:59:55;;;;;;;30.45;18.70;;;16.00;99.90;;;;;;4955179;28;20136;-65
2022/10/13 05:02:21;;;;;;;36.47;22.73;;;15.60;99.90;;;;;;4972279;28;20046;-65
2022/10/13 05:04:47;;;;;;;34.00;21.17;;;15.10;99.90;;;;;;4990162;28;20202;-65
2022/10/13 05:07:12;;;;;;;35.17;18.45;;;16.10;99.90;;;;;;4971248;28;20066;-65
2022/10/13 05:09:38;;;;;;;28.08;16.08;;;16.10;99.90;;;;;;4966843;28;20039;-65
2022/10/13 05:12:03;;;;;;;22.83;14.73;;;14.80;99.90;;;;;;4956821;28;20041;-64
2022/10/13 05:14:30;;;;;;;25.92;16.10;;;14.90;99.90;;;;;;4964440;28;20057;-65
2022/10/13 05:16:56;;;;;;;23.40;14.30;;;15.00;99.90;;;;;;4945168;28;20162;-65
2022/10/13 05:19:22;;;;;;;28.73;15.05;;;16.90;99.90;;;;;;4956292;28;20515;-65
2022/10/13 05:21:47;;;;;;;25.30;14.95;;;14.90;99.90;;;;;;4963671;28;20046;-65
2022/10/13 05:24:14;;;;;;;30.02;16.15;;;14.80;99.90;;;;;;4966901;28;20404;-65
2022/10/13 05:26:41;;;;;;;25.77;14.85;;;15.00;99.90;;;;;;4939658;28;20514;-65
2022/10/13 05:29:07;;;;;;;31.50;14.68;;;15.00;99.90;;;;;;4954745;28;20127;-65
2022/10/13 05:31:35;;;;;;;28.15;15.95;;;15.90;99.90;;;;;;4970391;28;20133;-65
2022/10/13 05:34:01;;;;;;;29.70;16.35;;;15.90;99.90;;;;;;4955704;28;20042;-64
2022/10/13 05:36:31;;;;;;;35.10;20.13;;;14.80;99.90;;;;;;4959362;28;20556;-65
2022/10/13 05:39:00;;;;;;;38.42;20.63;;;16.00;99.90;;;;;;4974553;28;20140;-65
2022/10/13 05:41:26;;;;;;;38.10;21.00;;;15.70;99.90;;;;;;4970205;28;20046;-64
2022/10/13 05:43:59;;;;;;;42.30;22.23;;;15.80;99.90;;;;;;4972549;28;20500;-65
2022/10/13 05:46:24;;;;;;;37.45;19.90;;;14.90;99.90;;;;;;4972307;28;20077;-65
2022/10/13 05:48:50;;;;;;;32.78;19.55;;;14.90;99.90;;;;;;4972269;28;20129;-65
2022/10/13 05:51:21;;;;;;;31.63;17.80;;;15.70;99.90;;;;;;4970460;28;20078;-65
2022/10/13 05:53:51;;;;;;;39.67;19.55;;;16.10;99.90;;;;;;4955447;28;20063;-65
2022/10/13 05:56:24;;;;;;;39.75;19.67;;;15.60;99.90;;;;;;4986544;28;20098;-64
2022/10/13 05:58:56;;;;;;;41.40;20.90;;;15.90;99.90;;;;;;4954388;28;20074;-64
2022/10/13 06:01:25;;;;;;;38.75;19.83;;;16.00;99.90;;;;;;4956403;28;20073;-64
2022/10/13 06:03:57;;;;;;;40.33;20.63;;;15.80;99.90;;;;;;4956496;28;20074;-65
2022/10/13 06:06:23;;;;;;;30.10;18.48;;;16.00;99.90;;;;;;4978049;28;20051;-65
2022/10/13 06:08:49;;;;;;;30.48;19.25;;;16.00;99.90;;;;;;4971031;28;20105;-64
2022/10/13 06:11:15;;;;;;;33.50;20.27;;;15.00;99.90;;;;;;4987256;28;20047;-64
2022/10/13 06:13:40;;;;;;;43.78;21.85;;;15.50;99.90;;;;;;4965582;28;20045;-66
2022/10/13 06:16:06;;;;;;;43.30;22.75;;;16.40;99.90;;;;;;4967375;28;20073;-66
2022/10/13 06:18:32;;;;;;;50.33;22.88;;;16.00;99.90;;;;;;4950950;28;20078;-66
2022/10/13 06:20:57;;;;;;;35.42;21.42;;;15.40;99.90;;;;;;4965897;28;20118;-66
2022/10/13 06:23:23;;;;;;;39.28;20.58;;;15.90;99.90;;;;;;4957702;28;20042;-66
2022/10/13 06:25:50;;;;;;;41.45;20.40;;;15.30;99.90;;;;;;4960378;28;20042;-66
2022/10/13 06:28:17;;;;;;;41.28;21.17;;;15.90;99.90;;;;;;4976458;28;20073;-66
2022/10/13 06:30:46;;;;;;;41.75;20.55;;;16.30;99.90;;;;;;4958236;28;20107;-66
2022/10/13 06:33:12;;;;;;;42.80;23.73;;;16.00;99.90;;;;;;4958389;28;20093;-65
2022/10/13 06:35:38;;;;;;;42.47;24.13;;;16.00;99.90;;;;;;4963401;28;20038;-65
2022/10/13 06:38:04;;;;;;;50.08;24.13;;;15.30;99.90;;;;;;4974087;28;20439;-66
2022/10/13 06:40:29;;;;;;;47.80;25.13;;;16.50;99.90;;;;;;4971635;28;20407;-66
2022/10/13 06:42:55;;;;;;;43.25;23.88;;;15.90;99.90;;;;;;4957197;28;20046;-66
2022/10/13 06:45:20;;;;;;;43.03;25.85;;;16.60;99.90;;;;;;4964771;28;20034;-66
2022/10/13 06:47:46;;;;;;;52.33;28.05;;;15.40;99.90;;;;;;4974679;28;20488;-66
2022/10/13 06:50:12;;;;;;;58.95;30.55;;;17.40;99.90;;;;;;4975689;28;20388;-66
2022/10/13 06:52:38;;;;;;;59.35;30.67;;;15.60;99.90;;;;;;4957602;28;20177;-65
2022/10/13 06:55:04;;;;;;;56.30;31.50;;;16.50;99.90;;;;;;4975977;28;20042;-66
2022/10/13 06:57:30;;;;;;;58.13;28.90;;;16.80;99.90;;;;;;4976213;28;20046;-65
2022/10/13 06:59:55;;;;;;;47.85;25.88;;;16.70;99.90;;;;;;4959533;28;20105;-66
2022/10/13 07:02:21;;;;;;;43.88;25.95;;;16.10;99.90;;;;;;4974778;28;20045;-66
2022/10/13 07:04:47;;;;;;;42.30;24.85;;;16.90;99.90;;;;;;4975483;28;20046;-64
2022/10/13 07:07:14;;;;;;;64.97;32.53;;;15.80;99.90;;;;;;4992024;28;20026;-64
2022/10/13 07:09:40;;;;;;;56.33;31.10;;;15.80;99.90;;;;;;4973500;28;20046;-66
2022/10/13 07:12:06;;;;;;;55.65;29.02;;;16.60;99.90;;;;;;4963778;28;20054;-66
2022/10/13 07:14:32;;;;;;;65.70;34.55;;;17.10;99.90;;;;;;4980786;28;20455;-66
2022/10/13 07:16:58;;;;;;;50.30;28.40;;;17.10;99.90;;;;;;4969581;28;20439;-65
2022/10/13 07:19:23;;;;;;;59.70;32.83;;;16.40;99.90;;;;;;4943315;28;20122;-66
2022/10/13 07:21:49;;;;;;;56.60;27.90;;;17.20;99.90;;;;;;4988336;28;20041;-66
2022/10/13 07:24:15;;;;;;;57.67;33.60;;;16.00;99.90;;;;;;4957876;28;20124;-66
2022/10/13 07:26:40;;;;;;;62.42;35.88;;;16.30;99.90;;;;;;4956793;28;20035;-66
2022/10/13 07:29:06;;;;;;;52.83;32.85;;;16.90;99.90;;;;;;4958160;28;20047;-66
2022/10/13 07:31:32;;;;;;;54.35;33.15;;;17.30;99.90;;;;;;4960161;28;20368;-66
2022/10/13 07:33:58;;;;;;;47.45;26.95;;;16.90;99.90;;;;;;4975732;28;20035;-66
2022/10/13 07:36:24;;;;;;;46.92;25.75;;;16.10;99.90;;;;;;4968086;28;20101;-66
2022/10/13 07:38:50;;;;;;;44.72;26.83;;;17.20;99.90;;;;;;4960900;28;20043;-66
2022/10/13 07:41:16;;;;;;;49.55;29.73;;;16.30;99.90;;;;;;4967040;28;20096;-66
2022/10/13 07:43:42;;;;;;;42.05;27.63;;;16.30;99.90;;;;;;4948156;28;20046;-66
2022/10/13 07:46:09;;;;;;;41.67;26.60;;;17.30;99.90;;;;;;4975466;28;20030;-66
2022/10/13 07:48:35;;;;;;;49.95;28.13;;;17.60;99.90;;;;;;4958777;28;20050;-65
2022/10/13 07:51:06;;;;;;;48.25;27.73;;;17.50;99.90;;;;;;4974531;28;20097;-66
2022/10/13 07:53:34;;;;;;;45.22;26.88;;;17.50;99.90;;;;;;4959316;28;20054;-66
2022/10/13 07:56:00;;;;;;;43.08;27.48;;;16.50;99.90;;;;;;4952765;29;20126;-66
2022/10/13 07:58:26;;;;;;;43.33;24.45;;;18.30;99.90;;;;;;4952448;29;20686;-66
2022/10/13 08:01:00;;;;;;;46.05;27.60;;;17.00;99.90;;;;;;4951124;29;20043;-66
2022/10/13 08:03:26;;;;;;;47.60;27.75;;;17.00;99.90;;;;;;4934501;29;20035;-66
2022/10/13 08:05:53;;;;;;;54.47;29.67;;;16.70;99.90;;;;;;4933528;29;20445;-66
2022/10/13 08:08:19;;;;;;;54.25;29.70;;;17.90;99.90;;;;;;4953228;28;20031;-66
2022/10/13 08:10:45;;;;;;;55.67;27.67;;;17.90;99.90;;;;;;4951797;29;20039;-66
2022/10/13 08:13:11;;;;;;;50.88;27.40;;;18.30;99.90;;;;;;4952154;29;20523;-66
2022/10/13 08:15:40;;;;;;;34.92;22.63;;;17.80;99.90;;;;;;4946228;29;20043;-66
2022/10/13 08:18:06;;;;;;;38.95;22.33;;;17.30;99.90;;;;;;4940005;29;20501;-66
2022/10/13 08:20:33;;;;;;;30.88;19.42;;;17.30;99.90;;;;;;4941749;29;20043;-66
2022/10/13 08:22:58;;;;;;;37.70;20.75;;;18.30;99.90;;;;;;4952555;29;20051;-65
2022/10/13 08:25:24;;;;;;;36.67;22.42;;;18.40;99.90;;;;;;4940883;29;20405;-66
2022/10/13 08:27:50;;;;;;;40.53;20.42;;;18.50;99.90;;;;;;4932807;29;20071;-66
2022/10/13 08:30:15;;;;;;;35.03;21.35;;;18.50;99.90;;;;;;4917317;29;20130;-66
2022/10/13 08:32:41;;;;;;;31.17;19.90;;;17.20;99.90;;;;;;4943283;29;20067;-66
2022/10/13 08:35:07;;;;;;;45.15;24.88;;;18.60;99.90;;;;;;4949176;29;20043;-65
2022/10/13 08:37:33;;;;;;;47.53;22.90;;;18.60;99.90;;;;;;4931172;29;20057;-66
2022/10/13 08:39:59;;;;;;;35.58;20.10;;;18.10;99.90;;;;;;4950554;29;20127;-66
2022/10/13 08:42:25;;;;;;;33.92;20.20;;;17.20;99.90;;;;;;4932755;29;20051;-66
2022/10/13 08:44:52;;;;;;;32.05;19.35;;;17.20;99.90;;;;;;4943126;28;20045;-66
2022/10/13 08:47:44;;;;;;;35.05;18.35;;;18.40;99.90;;;;;;4945710;29;20114;-66
2022/10/13 08:50:14;;;;;;;30.25;17.80;;;17.40;99.90;;;;;;4917787;29;20051;-66
2022/10/13 08:52:52;;;;;;;29.63;17.00;;;17.30;99.90;;;;;;4956356;28;20058;-66
2022/10/13 08:55:38;;;;;;;32.50;18.45;;;18.70;99.90;;;;;;4972451;28;20046;-66
2022/10/13 08:58:15;;;;;;;33.20;16.77;;;18.70;99.90;;;;;;4971932;28;20038;-66
2022/10/13 09:00:41;;;;;;;41.88;16.73;;;18.50;99.90;;;;;;4950317;28;20078;-66
2022/10/13 09:03:25;;;;;;;22.52;12.20;;;17.10;99.90;;;;;;4962784;28;20125;-66
2022/10/13 09:06:15;;;;;;;26.05;14.85;;;17.40;99.90;;;;;;4969532;28;20041;-66
2022/10/13 09:08:57;;;;;;;29.35;16.25;;;18.10;99.90;;;;;;4974401;28;20408;-66
2022/10/13 09:11:26;;;;;;;28.67;14.65;;;18.40;99.90;;;;;;4956302;28;20046;-66
2022/10/13 09:13:58;;;;;;;33.97;15.75;;;18.50;99.90;;;;;;4974157;28;20096;-66
2022/10/13 09:16:44;;;;;;;29.67;15.30;;;17.10;99.90;;;;;;4972585;28;20050;-66
2022/10/13 09:19:33;;;;;;;25.67;14.70;;;17.60;99.90;;;;;;4972002;28;20042;-66
2022/10/13 09:22:18;;;;;;;28.10;13.32;;;18.80;99.90;;;;;;4966765;28;20385;-69
2022/10/13 09:24:44;;;;;;;23.15;13.85;;;17.30;99.90;;;;;;4949691;28;20043;-66
2022/10/13 09:27:15;;;;;;;24.75;14.30;;;17.60;99.90;;;;;;4966381;28;20132;-66
2022/10/13 09:29:43;;;;;;;20.95;13.75;;;18.40;99.90;;;;;;4974163;28;20578;-66
2022/10/13 09:32:18;;;;;;;26.27;14.23;;;17.40;99.90;;;;;;4983664;28;20049;-66
2022/10/13 09:34:45;;;;;;;27.00;16.17;;;18.90;99.90;;;;;;4973917;28;20048;-66
2022/10/13 09:37:23;;;;;;;26.08;14.35;;;19.00;99.90;;;;;;4974013;28;20121;-66
2022/10/13 09:40:13;;;;;;;33.25;16.05;;;19.10;99.90;;;;;;4972685;28;20039;-66
2022/10/13 09:42:39;;;;;;;27.95;15.68;;;17.40;99.90;;;;;;4973509;28;20042;-66
2022/10/13 09:45:20;;;;;;;26.52;15.23;;;18.10;99.90;;;;;;4974692;28;20403;-66
2022/10/13 09:48:06;;;;;;;28.13;15.98;;;19.00;99.90;;;;;;4990841;28;20121;-65
2022/10/13 09:50:34;;;;;;;28.23;15.32;;;19.20;99.90;;;;;;4974881;28;20129;-66
2022/10/13 09:53:24;;;;;;;31.50;14.93;;;19.00;99.90;;;;;;4956236;28;20055;-66
2022/10/13 09:56:29;;;;;;;26.83;13.98;;;18.80;99.90;;;;;;4961924;28;20047;-66
2022/10/13 09:59:23;;;;;;;31.88;15.25;;;17.90;99.90;;;;;;4984680;28;20618;-66
2022/10/13 10:01:51;;;;;;;28.40;13.60;;;19.10;99.90;;;;;;4955806;28;20126;-66
2022/10/13 10:04:23;;;;;;;25.23;11.60;;;18.60;99.90;;;;;;4954714;28;20038;-67
2022/10/13 10:06:48;;;;;;;28.25;11.80;;;18.10;99.90;;;;;;4988330;28;20681;-66
2022/10/13 10:09:35;;;;;;;26.70;11.38;;;18.00;99.90;;;;;;4960185;28;20070;-66
2022/10/13 10:12:03;;;;;;;26.85;9.90;;;18.90;99.90;;;;;;4983230;28;20050;-66
2022/10/13 10:14:38;;;;;;;24.05;9.30;;;18.80;99.90;;;;;;4958447;28;20536;-66
2022/10/13 10:17:32;;;;;;;16.15;7.00;;;19.10;99.90;;;;;;4975135;28;20049;-66
2022/10/13 10:19:57;;;;;;;19.20;6.20;;;19.10;99.90;;;;;;4963128;28;20049;-66
2022/10/13 10:22:48;;;;;;;15.00;5.32;;;17.90;99.90;;;;;;4948221;28;20489;-66
2022/10/13 10:25:16;;;;;;;12.70;4.05;;;18.10;99.90;;;;;;4959795;28;20050;-66
2022/10/13 10:28:08;;;;;;;21.63;3.78;;;18.30;99.90;;;;;;4963203;28;20038;-66
2022/10/13 10:30:42;;;;;;;11.23;2.95;;;17.60;99.90;;;;;;4961937;28;20133;-66
2022/10/13 10:33:12;;;;;;;11.63;3.28;;;19.10;99.90;;;;;;4960434;28;20050;-66
2022/10/13 10:35:46;;;;;;;10.57;2.97;;;19.00;99.90;;;;;;4965215;28;20038;-66
2022/10/13 10:38:39;;;;;;;12.75;2.35;;;18.50;99.90;;;;;;4970007;28;20114;-66
2022/10/13 10:41:14;;;;;;;12.07;2.13;;;18.80;99.90;;;;;;4967701;28;20051;-66
2022/10/13 10:44:03;;;;;;;7.78;2.10;;;18.80;99.90;;;;;;4963875;28;20042;-66
2022/10/13 10:46:33;;;;;;;9.05;2.20;;;19.40;99.90;;;;;;4957903;28;20058;-66
2022/10/13 10:49:15;;;;;;;10.88;2.17;;;19.50;99.90;;;;;;4966987;28;20046;-66
2022/10/13 10:51:42;;;;;;;6.05;2.10;;;19.50;99.90;;;;;;4942602;28;20050;-66
2022/10/13 10:54:24;;;;;;;11.95;2.40;;;18.10;99.90;;;;;;4959531;28;20393;-66
2022/10/13 10:56:59;;;;;;;11.60;2.15;;;19.50;99.90;;;;;;4960701;28;20113;-66
2022/10/13 10:59:28;;;;;;;10.43;1.65;;;19.90;99.90;;;;;;4969816;28;20093;-66
2022/10/13 11:01:56;;;;;;;8.00;1.90;;;19.20;99.90;;;;;;4962027;28;20412;-66
2022/10/13 11:04:41;;;;;;;11.50;1.80;;;19.50;99.90;;;;;;4967096;28;20512;-66
2022/10/13 11:07:29;;;;;;;10.75;2.03;;;18.90;99.90;;;;;;4964197;28;20071;-66
2022/10/13 11:09:56;;;;;;;9.90;2.15;;;18.40;99.90;;;;;;4963430;28;20039;-66
2022/10/13 11:12:21;;;;;;;14.38;2.67;;;19.20;99.90;;;;;;4951987;28;20150;-67
2022/10/13 11:15:08;;;;;;;9.65;2.00;;;19.30;99.90;;;;;;4961552;28;20487;-66
2022/10/13 11:17:43;;;;;;;14.02;2.15;;;18.30;99.90;;;;;;4957791;28;20034;-66
2022/10/13 11:20:31;;;;;;;13.18;2.03;;;19.50;99.90;;;;;;4963604;28;20090;-66
2022/10/13 11:22:57;;;;;;;14.30;2.40;;;18.90;99.90;;;;;;4965926;28;20046;-67
2022/10/13 11:25:40;;;;;;;9.38;2.10;;;18.40;99.90;;;;;;4960202;28;20054;-66
2022/10/13 11:28:20;;;;;;;11.18;2.10;;;18.30;99.90;;;;;;4955375;28;20035;-66
2022/10/13 11:31:16;;;;;;;11.82;2.10;;;18.60;99.90;;;;;;4957288;28;20066;-67
2022/10/13 11:33:41;;;;;;;7.07;2.33;;;19.00;99.90;;;;;;4978926;28;20070;-66
2022/10/13 11:36:32;;;;;;;11.15;2.90;;;19.10;99.90;;;;;;4962713;28;20089;-66
2022/10/13 11:39:20;;;;;;;10.82;2.47;;;18.60;99.90;;;;;;4968304;28;20146;-66
2022/10/13 11:42:02;;;;;;;17.98;3.17;;;18.70;99.90;;;;;;4966703;28;20082;-66
2022/10/13 11:44:44;;;;;;;13.20;2.70;;;19.70;99.90;;;;;;4972251;28;20382;-66
2022/10/13 11:47:37;;;;;;;11.00;2.53;;;19.80;99.90;;;;;;4962673;28;20512;-66
2022/10/13 11:50:36;;;;;;;12.75;2.90;;;19.00;99.90;;;;;;4966974;28;20051;-66
2022/10/13 11:53:33;;;;;;;7.05;2.97;;;18.90;99.90;;;;;;4947238;28;20063;-66
2022/10/13 11:56:02;;;;;;;11.40;2.35;;;18.70;99.90;;;;;;4935036;28;20058;-66
2022/10/13 11:58:32;;;;;;;10.68;2.60;;;18.90;99.90;;;;;;4946580;29;20145;-66
2022/10/13 12:01:00;;;;;;;16.05;2.80;;;19.80;99.90;;;;;;4937583;28;20043;-66
2022/10/13 12:03:31;;;;;;;9.52;2.25;;;18.80;99.90;;;;;;4941597;29;20054;-66
2022/10/13 12:06:03;;;;;;;12.63;2.92;;;18.70;99.90;;;;;;4944548;28;20027;-67
2022/10/13 12:08:32;;;;;;;11.30;2.80;;;18.80;99.90;;;;;;4937955;29;20501;-66
2022/10/13 12:11:01;;;;;;;11.23;2.50;;;19.50;99.90;;;;;;4939265;29;20043;-66
2022/10/13 12:13:29;;;;;;;12.57;2.95;;;19.80;99.90;;;;;;4942917;29;20042;-66
2022/10/13 12:16:05;;;;;;;10.82;2.70;;;19.90;99.90;;;;;;4939200;29;20035;-66
2022/10/13 12:18:37;;;;;;;8.65;2.47;;;19.40;99.90;;;;;;4938056;29;20050;-66
2022/10/13 12:21:16;;;;;;;8.10;2.20;;;18.90;99.90;;;;;;4940714;29;20056;-66
2022/10/13 12:23:42;;;;;;;10.13;2.53;;;19.50;99.90;;;;;;4944373;29;20047;-66
2022/10/13 12:26:17;;;;;;;14.30;2.78;;;20.20;99.90;;;;;;4937557;29;20035;-66
2022/10/13 12:28:57;;;;;;;15.75;2.60;;;19.20;99.90;;;;;;4946413;28;20055;-66
2022/10/13 12:31:25;;;;;;;9.05;2.50;;;19.30;99.90;;;;;;4945000;29;20046;-66
2022/10/13 12:33:57;;;;;;;8.30;2.30;;;19.70;99.90;;;;;;4920625;29;20394;-66
2022/10/13 12:36:31;;;;;;;13.73;3.00;;;19.70;99.90;;;;;;4950324;28;20047;-66
2022/10/13 12:39:06;;;;;;;14.30;2.63;;;19.80;99.90;;;;;;4944836;29;20401;-66
2022/10/13 12:41:35;;;;;;;12.60;2.90;;;19.80;99.90;;;;;;4938812;29;20068;-66
2022/10/13 12:44:01;;;;;;;9.00;2.55;;;19.20;99.90;;;;;;4948900;28;20121;-66
2022/10/13 12:46:43;;;;;;;9.25;2.40;;;19.80;99.90;;;;;;4932755;29;20114;-66